Time;durP1;ratioP1;P1;durP2;ratioP2;P2;SDS_P1;SDS_P2;PMS_P1;PMS_P2;Temp;Humidity;BMP_temperature;BMP_pressure;BME280_temperature;BME280_humidity;BME280_pressure;Samples;Min_cycle;Max_cycle;Signal;HPM_P1;HPM_P2
2021/09/26 00:01:33;;;;;;;24.13;19.98;;;17.20;99.90;;;;;;5031787;28;20388;-71
2021/09/26 00:03:59;;;;;;;27.08;20.10;;;17.20;99.90;;;;;;5032251;28;20040;-70
2021/09/26 00:06:24;;;;;;;24.40;19.73;;;17.20;99.90;;;;;;5032649;28;20025;-71
2021/09/26 00:08:50;;;;;;;24.90;19.85;;;17.20;99.90;;;;;;5032245;28;20033;-70
2021/09/26 00:11:15;;;;;;;25.55;20.23;;;17.10;99.90;;;;;;5032507;28;20453;-70
2021/09/26 00:13:42;;;;;;;24.17;19.40;;;17.20;99.90;;;;;;5031742;28;20030;-71
2021/09/26 00:16:08;;;;;;;26.77;19.95;;;17.20;99.90;;;;;;5031507;28;20071;-71
2021/09/26 00:18:34;;;;;;;24.45;20.33;;;17.20;99.90;;;;;;5029885;28;20030;-71
2021/09/26 00:21:01;;;;;;;28.48;20.05;;;17.20;99.90;;;;;;5033449;28;20034;-71
2021/09/26 00:23:27;;;;;;;27.52;20.08;;;17.10;99.90;;;;;;5025389;28;20033;-71
2021/09/26 00:25:54;;;;;;;24.65;19.75;;;17.10;99.90;;;;;;5033138;28;20071;-71
2021/09/26 00:28:21;;;;;;;25.95;20.98;;;17.10;99.90;;;;;;5024125;28;20033;-71
2021/09/26 00:30:48;;;;;;;27.52;19.83;;;17.10;99.90;;;;;;5032042;28;20466;-71
2021/09/26 00:33:13;;;;;;;26.58;18.75;;;17.10;99.90;;;;;;5030662;28;20021;-70
2021/09/26 00:35:39;;;;;;;26.63;19.77;;;17.10;99.90;;;;;;5014427;28;20544;-70
2021/09/26 00:38:05;;;;;;;24.50;19.42;;;17.10;99.90;;;;;;5018384;28;20449;-70
2021/09/26 00:40:30;;;;;;;23.50;18.52;;;17.10;99.90;;;;;;5013323;28;20033;-70
2021/09/26 00:42:56;;;;;;;25.55;18.90;;;17.10;99.90;;;;;;5019510;28;20072;-70
2021/09/26 00:45:22;;;;;;;25.33;19.35;;;17.10;99.90;;;;;;5013226;28;20024;-72
2021/09/26 00:47:49;;;;;;;22.25;18.48;;;17.20;99.90;;;;;;5018796;28;20149;-72
2021/09/26 00:50:15;;;;;;;27.80;19.63;;;17.20;99.90;;;;;;5013385;28;20076;-71
2021/09/26 00:52:45;;;;;;;23.75;18.30;;;17.20;99.90;;;;;;5023526;28;20105;-71
2021/09/26 00:55:11;;;;;;;23.35;18.33;;;17.20;99.90;;;;;;5031409;28;20050;-71
2021/09/26 00:57:37;;;;;;;24.27;18.33;;;17.20;99.90;;;;;;5023050;28;20624;-71
2021/09/26 01:00:05;;;;;;;21.30;17.58;;;17.20;99.90;;;;;;5011648;28;20466;-71
2021/09/26 01:02:30;;;;;;;24.80;18.92;;;17.30;99.90;;;;;;5016072;28;20045;-71
2021/09/26 01:04:56;;;;;;;22.75;18.20;;;17.30;99.90;;;;;;5012594;28;20604;-71
2021/09/26 01:07:49;;;;;;;27.67;20.08;;;17.30;99.90;;;;;;5017937;28;20033;-71
2021/09/26 01:10:31;;;;;;;23.70;17.85;;;17.30;99.90;;;;;;5032201;28;20121;-71
2021/09/26 01:13:22;;;;;;;20.88;17.77;;;17.30;99.90;;;;;;5029880;28;20072;-71
2021/09/26 01:16:15;;;;;;;23.35;17.70;;;17.30;99.90;;;;;;5032186;28;20052;-71
2021/09/26 01:19:07;;;;;;;22.08;17.15;;;17.30;99.90;;;;;;5029826;28;20034;-72
2021/09/26 01:21:53;;;;;;;22.13;16.33;;;17.30;99.90;;;;;;5031826;28;20030;-71
2021/09/26 01:25:00;;;;;;;21.85;17.02;;;17.30;99.90;;;;;;5032170;28;20033;-72
2021/09/26 01:27:41;;;;;;;20.02;17.05;;;17.30;99.90;;;;;;5030451;28;20454;-70
2021/09/26 01:30:20;;;;;;;22.30;16.23;;;17.30;99.90;;;;;;5029055;28;20056;-71
2021/09/26 01:33:18;;;;;;;22.17;18.20;;;17.30;99.90;;;;;;5014179;28;20037;-71
2021/09/26 01:36:01;;;;;;;20.90;15.30;;;17.30;99.90;;;;;;5023857;28;20051;-71
2021/09/26 01:38:36;;;;;;;20.75;15.23;;;17.30;99.90;;;;;;5029185;28;20041;-71
2021/09/26 01:41:15;;;;;;;20.85;16.17;;;17.30;99.90;;;;;;5030846;28;20115;-70
2021/09/26 01:43:43;;;;;;;23.45;17.58;;;17.30;99.90;;;;;;5026249;28;20685;-70
2021/09/26 01:46:11;;;;;;;20.00;16.52;;;17.30;99.90;;;;;;5012253;28;20133;-71
2021/09/26 01:48:42;;;;;;;19.77;16.40;;;17.30;99.90;;;;;;5025057;28;20068;-70
2021/09/26 01:51:09;;;;;;;23.40;17.13;;;17.30;99.90;;;;;;5031252;28;20041;-71
2021/09/26 01:53:39;;;;;;;22.95;16.95;;;17.30;99.90;;;;;;5028292;28;20449;-70
2021/09/26 01:56:05;;;;;;;21.50;16.83;;;17.30;99.90;;;;;;5031482;28;20079;-71
2021/09/26 01:58:32;;;;;;;20.80;16.58;;;17.40;99.90;;;;;;5028490;28;20037;-71
2021/09/26 02:00:57;;;;;;;22.80;17.58;;;17.30;99.90;;;;;;5017891;28;20418;-70
2021/09/26 02:03:24;;;;;;;21.35;17.25;;;17.40;99.90;;;;;;5010885;28;20129;-71
2021/09/26 02:05:50;;;;;;;24.65;16.85;;;17.30;99.90;;;;;;5022436;28;20029;-70
2021/09/26 02:08:16;;;;;;;19.70;16.30;;;17.30;99.90;;;;;;5014710;28;20112;-71
2021/09/26 02:10:44;;;;;;;20.85;17.35;;;17.30;99.90;;;;;;5021765;28;20116;-71
2021/09/26 02:13:11;;;;;;;21.38;17.10;;;17.40;99.90;;;;;;5029420;28;20037;-71
2021/09/26 02:15:38;;;;;;;20.20;16.55;;;17.40;99.90;;;;;;5039956;28;20100;-71
2021/09/26 02:18:05;;;;;;;21.08;16.38;;;17.40;99.90;;;;;;5025713;28;20044;-71
2021/09/26 02:20:32;;;;;;;21.15;17.60;;;17.40;99.90;;;;;;5030538;28;20026;-72
2021/09/26 02:23:00;;;;;;;21.35;17.80;;;17.40;99.90;;;;;;5015996;28;20386;-71
2021/09/26 02:25:26;;;;;;;20.38;16.80;;;17.40;99.90;;;;;;5015063;28;20030;-71
2021/09/26 02:27:53;;;;;;;22.88;17.27;;;17.40;99.90;;;;;;5011412;28;20030;-71
2021/09/26 02:30:19;;;;;;;22.48;17.65;;;17.40;99.90;;;;;;5016672;28;20032;-71
2021/09/26 02:32:45;;;;;;;21.83;17.30;;;17.30;99.90;;;;;;5028813;28;20393;-71
2021/09/26 02:35:13;;;;;;;22.77;17.73;;;17.40;99.90;;;;;;5030587;28;20052;-71
2021/09/26 02:37:39;;;;;;;23.33;17.50;;;17.30;99.90;;;;;;5030429;28;20041;-71
2021/09/26 02:40:06;;;;;;;24.92;17.80;;;17.40;99.90;;;;;;5032056;28;20508;-71
2021/09/26 02:42:49;;;;;;;21.83;18.00;;;17.40;99.90;;;;;;5022259;28;20080;-71
2021/09/26 02:45:33;;;;;;;20.40;17.92;;;17.40;99.90;;;;;;5019400;28;20060;-72
2021/09/26 02:48:17;;;;;;;22.38;17.52;;;17.40;99.90;;;;;;5033509;28;20025;-72
2021/09/26 02:50:46;;;;;;;21.80;17.73;;;17.40;99.90;;;;;;5037166;28;20061;-72
2021/09/26 02:53:12;;;;;;;22.33;17.27;;;17.30;99.90;;;;;;5034272;28;20065;-72
2021/09/26 02:55:40;;;;;;;24.67;18.60;;;17.40;99.90;;;;;;5034913;28;20502;-72
2021/09/26 02:58:06;;;;;;;20.13;15.25;;;17.30;99.90;;;;;;5027357;28;20561;-72
2021/09/26 03:00:35;;;;;;;22.60;17.65;;;17.30;99.90;;;;;;5029505;28;20036;-72
2021/09/26 03:03:13;;;;;;;22.58;17.23;;;17.40;99.90;;;;;;5019952;28;20037;-71
2021/09/26 03:05:42;;;;;;;21.50;16.48;;;17.40;99.90;;;;;;5039364;28;20429;-72
2021/09/26 03:08:08;;;;;;;19.65;15.93;;;17.40;99.90;;;;;;5037897;28;20063;-72
2021/09/26 03:10:35;;;;;;;21.80;16.02;;;17.40;99.90;;;;;;5034811;28;20056;-72
2021/09/26 03:13:01;;;;;;;20.50;16.35;;;17.40;99.90;;;;;;5031260;28;20065;-72
2021/09/26 03:15:27;;;;;;;22.52;17.40;;;17.40;99.90;;;;;;5032140;28;20112;-72
2021/09/26 03:17:52;;;;;;;17.35;14.65;;;17.50;99.90;;;;;;5014033;28;20117;-71
2021/09/26 03:20:18;;;;;;;19.67;15.95;;;17.40;99.90;;;;;;5014749;28;20030;-72
2021/09/26 03:22:44;;;;;;;22.85;17.65;;;17.40;99.90;;;;;;5032849;28;20036;-72
2021/09/26 03:25:09;;;;;;;20.65;16.50;;;17.40;99.90;;;;;;5034989;28;20029;-72
2021/09/26 03:27:35;;;;;;;22.75;16.23;;;17.50;99.90;;;;;;5027347;28;20069;-72
2021/09/26 03:30:01;;;;;;;17.50;15.18;;;17.50;99.90;;;;;;5033376;28;20083;-72
2021/09/26 03:32:26;;;;;;;18.33;15.63;;;17.50;99.90;;;;;;5024096;28;20018;-72
2021/09/26 03:34:52;;;;;;;19.83;16.13;;;17.50;99.90;;;;;;5024775;28;20063;-71
2021/09/26 03:37:17;;;;;;;21.45;16.48;;;17.50;99.90;;;;;;5032197;28;20132;-71
2021/09/26 03:39:43;;;;;;;20.83;16.23;;;17.50;99.90;;;;;;5033297;28;20371;-72
2021/09/26 03:42:08;;;;;;;23.00;16.77;;;17.50;99.90;;;;;;5025556;28;20064;-73
2021/09/26 03:44:34;;;;;;;19.98;15.73;;;17.50;99.90;;;;;;5026778;28;20060;-73
2021/09/26 03:47:00;;;;;;;19.73;16.08;;;17.50;99.90;;;;;;5027590;28;20498;-71
2021/09/26 03:49:26;;;;;;;18.60;15.23;;;17.50;99.90;;;;;;5025821;28;20493;-72
2021/09/26 03:51:53;;;;;;;20.25;15.52;;;17.50;99.90;;;;;;5031867;28;20079;-72
2021/09/26 03:54:20;;;;;;;19.02;15.13;;;17.50;99.90;;;;;;5031775;28;20095;-72
2021/09/26 03:56:46;;;;;;;18.10;14.77;;;17.50;99.90;;;;;;5027979;28;20046;-72
2021/09/26 03:59:13;;;;;;;18.67;14.48;;;17.50;99.90;;;;;;5033713;28;20106;-73
2021/09/26 04:01:39;;;;;;;16.83;14.48;;;17.50;99.90;;;;;;5031103;28;20029;-73
2021/09/26 04:04:05;;;;;;;18.83;14.55;;;17.50;99.90;;;;;;5031303;28;20124;-71
2021/09/26 04:06:31;;;;;;;16.08;12.70;;;17.60;99.90;;;;;;5031943;28;20493;-72
2021/09/26 04:08:56;;;;;;;18.73;14.13;;;17.60;99.90;;;;;;5032706;28;20029;-72
2021/09/26 04:11:22;;;;;;;17.55;13.90;;;17.60;99.90;;;;;;5032276;28;20032;-72
2021/09/26 04:13:48;;;;;;;16.88;14.05;;;17.60;99.90;;;;;;5031519;28;20112;-72
2021/09/26 04:16:13;;;;;;;17.42;13.25;;;17.60;99.90;;;;;;5015216;28;20026;-72
2021/09/26 04:18:39;;;;;;;16.60;14.25;;;17.50;99.90;;;;;;5031490;28;20091;-72
2021/09/26 04:21:05;;;;;;;19.08;13.73;;;17.60;99.90;;;;;;5033769;28;20021;-72
2021/09/26 04:23:31;;;;;;;16.85;13.27;;;17.60;99.90;;;;;;5031051;28;20074;-72
2021/09/26 04:25:57;;;;;;;18.25;13.38;;;17.50;99.90;;;;;;5033326;28;20057;-72
2021/09/26 04:28:22;;;;;;;16.75;12.98;;;17.50;99.90;;;;;;5028234;28;20775;-73
2021/09/26 04:30:48;;;;;;;17.38;13.07;;;17.50;99.90;;;;;;5032195;28;20026;-71
2021/09/26 04:33:13;;;;;;;15.55;12.35;;;17.50;99.90;;;;;;5030304;28;20025;-72
2021/09/26 04:35:39;;;;;;;16.30;12.48;;;17.60;99.90;;;;;;5031965;28;20030;-71
2021/09/26 04:38:04;;;;;;;18.05;13.57;;;17.50;99.90;;;;;;5031163;28;20079;-72
2021/09/26 04:40:30;;;;;;;17.52;14.05;;;17.60;99.90;;;;;;5032435;28;20026;-71
2021/09/26 04:42:55;;;;;;;15.55;12.73;;;17.50;99.90;;;;;;5031110;28;20064;-72
2021/09/26 04:45:21;;;;;;;17.50;13.55;;;17.50;99.90;;;;;;5031769;28;20038;-72
2021/09/26 04:47:47;;;;;;;18.77;13.07;;;17.50;99.90;;;;;;5030849;28;20030;-72
2021/09/26 04:50:12;;;;;;;16.08;13.30;;;17.50;99.90;;;;;;5032422;28;20026;-72
2021/09/26 04:52:38;;;;;;;17.00;13.40;;;17.50;99.90;;;;;;5029704;28;20029;-73
2021/09/26 04:55:05;;;;;;;14.02;12.18;;;17.50;99.90;;;;;;5032405;28;20136;-73
2021/09/26 04:57:31;;;;;;;16.58;13.35;;;17.50;99.90;;;;;;5028730;28;20164;-73
2021/09/26 04:59:56;;;;;;;17.10;13.05;;;17.50;99.90;;;;;;5031530;28;20112;-74
2021/09/26 05:02:22;;;;;;;16.45;12.02;;;17.50;99.90;;;;;;5022794;28;20034;-72
2021/09/26 05:04:47;;;;;;;17.73;13.13;;;17.50;99.90;;;;;;5012935;28;20482;-71
2021/09/26 05:07:13;;;;;;;19.58;13.70;;;17.50;99.90;;;;;;5015559;28;20394;-71
2021/09/26 05:09:39;;;;;;;14.82;12.73;;;17.50;99.90;;;;;;5032492;28;20021;-72
2021/09/26 05:12:05;;;;;;;15.00;12.88;;;17.60;99.90;;;;;;5026740;28;20073;-71
2021/09/26 05:14:30;;;;;;;16.27;13.20;;;17.60;99.90;;;;;;5032242;28;20432;-71
2021/09/26 05:16:56;;;;;;;15.95;13.38;;;17.60;99.90;;;;;;5028567;28;20030;-72
2021/09/26 05:19:21;;;;;;;17.40;13.35;;;17.60;99.90;;;;;;5032061;28;20022;-72
2021/09/26 05:21:47;;;;;;;16.75;12.35;;;17.60;99.90;;;;;;5029603;28;20025;-72
2021/09/26 05:24:12;;;;;;;14.93;12.32;;;17.60;99.90;;;;;;5030309;28;20029;-72
2021/09/26 05:26:38;;;;;;;14.93;12.68;;;17.60;99.90;;;;;;5028989;28;20029;-72
2021/09/26 05:29:06;;;;;;;15.70;12.50;;;17.60;99.90;;;;;;5012851;28;20355;-72
2021/09/26 05:31:32;;;;;;;17.83;13.38;;;17.60;99.90;;;;;;5021641;28;20041;-72
2021/09/26 05:33:58;;;;;;;15.98;12.65;;;17.70;99.90;;;;;;5031497;28;20040;-72
2021/09/26 05:36:23;;;;;;;15.95;12.75;;;17.70;99.90;;;;;;5030028;28;20034;-73
2021/09/26 05:38:49;;;;;;;15.25;12.35;;;17.60;99.90;;;;;;5030886;28;20486;-73
2021/09/26 05:41:15;;;;;;;18.38;12.82;;;17.60;99.90;;;;;;5027568;28;20080;-72
2021/09/26 05:43:40;;;;;;;15.98;12.23;;;17.60;99.90;;;;;;5028782;28;20033;-72
2021/09/26 05:46:06;;;;;;;17.33;12.40;;;17.70;99.90;;;;;;5032005;28;20351;-72
2021/09/26 05:48:31;;;;;;;16.10;11.73;;;17.70;99.90;;;;;;5023827;28;20021;-70
2021/09/26 05:50:57;;;;;;;18.77;14.57;;;17.70;99.90;;;;;;5014508;28;20366;-70
2021/09/26 05:53:22;;;;;;;18.23;12.63;;;17.80;99.90;;;;;;5017698;28;20072;-69
2021/09/26 05:55:48;;;;;;;15.48;11.85;;;17.70;99.90;;;;;;5015179;28;20030;-73
2021/09/26 05:58:15;;;;;;;14.65;11.60;;;17.80;99.90;;;;;;5016888;28;20482;-71
2021/09/26 06:00:40;;;;;;;15.32;12.27;;;17.80;99.90;;;;;;5023238;28;20400;-67
2021/09/26 06:03:06;;;;;;;16.58;12.55;;;17.80;99.90;;;;;;5017021;28;20070;-68
2021/09/26 06:05:31;;;;;;;15.73;11.88;;;17.80;99.90;;;;;;5011611;28;20029;-67
2021/09/26 06:07:57;;;;;;;15.45;12.13;;;17.90;99.90;;;;;;5012448;28;20502;-69
2021/09/26 06:10:22;;;;;;;15.88;13.32;;;17.90;99.90;;;;;;5015199;28;20477;-69
2021/09/26 06:12:48;;;;;;;16.75;13.73;;;17.90;99.90;;;;;;5024246;28;20075;-69
2021/09/26 06:15:13;;;;;;;16.92;11.52;;;18.00;99.90;;;;;;5028291;28;20033;-70
2021/09/26 06:17:39;;;;;;;16.52;13.05;;;18.00;99.90;;;;;;5027464;28;20129;-70
2021/09/26 06:20:05;;;;;;;15.52;11.55;;;18.10;99.90;;;;;;5019562;28;20481;-70
2021/09/26 06:22:31;;;;;;;14.43;12.30;;;18.00;99.90;;;;;;5013616;28;20052;-70
2021/09/26 06:24:58;;;;;;;15.63;12.52;;;18.10;99.90;;;;;;5010719;28;20113;-70
2021/09/26 06:27:25;;;;;;;15.50;12.45;;;18.00;99.90;;;;;;5015775;28;20474;-70
2021/09/26 06:29:50;;;;;;;16.35;13.02;;;18.10;99.90;;;;;;5015604;28;20034;-69
2021/09/26 06:32:16;;;;;;;15.85;13.25;;;18.10;99.90;;;;;;5012937;28;20072;-70
2021/09/26 06:34:42;;;;;;;15.55;12.75;;;18.10;99.90;;;;;;5017494;28;20105;-69
2021/09/26 06:37:07;;;;;;;17.60;13.27;;;18.20;99.90;;;;;;5014179;28;20037;-70
2021/09/26 06:39:34;;;;;;;16.38;11.95;;;18.10;99.90;;;;;;5032037;28;20030;-69
2021/09/26 06:42:00;;;;;;;15.48;12.95;;;18.10;99.90;;;;;;5025302;28;20061;-70
2021/09/26 06:44:26;;;;;;;16.90;12.77;;;18.10;99.90;;;;;;5016904;28;20107;-69
2021/09/26 06:46:52;;;;;;;18.13;12.77;;;18.10;99.90;;;;;;5031088;28;20191;-69
2021/09/26 06:49:17;;;;;;;16.73;12.77;;;18.10;99.90;;;;;;5025787;28;20034;-69
2021/09/26 06:51:43;;;;;;;16.42;12.50;;;18.10;99.90;;;;;;5024283;28;20587;-69
2021/09/26 06:54:09;;;;;;;14.77;12.07;;;18.20;99.90;;;;;;5024373;28;20030;-69
2021/09/26 06:56:34;;;;;;;18.15;12.60;;;18.20;99.90;;;;;;5025825;28;20070;-69
2021/09/26 06:59:00;;;;;;;17.90;13.45;;;18.20;99.90;;;;;;5015124;28;20033;-69
2021/09/26 07:01:26;;;;;;;15.02;12.40;;;18.20;99.90;;;;;;5026438;28;20116;-70
2021/09/26 07:03:51;;;;;;;15.23;12.05;;;18.30;99.90;;;;;;5014518;28;20121;-70
2021/09/26 07:06:17;;;;;;;15.57;11.95;;;18.30;99.90;;;;;;5018847;28;20030;-73
2021/09/26 07:08:42;;;;;;;14.40;11.43;;;18.30;99.90;;;;;;5014623;28;20474;-68
2021/09/26 07:11:08;;;;;;;14.00;11.88;;;18.30;99.90;;;;;;5021232;28;20026;-69
2021/09/26 07:13:33;;;;;;;17.17;12.48;;;18.30;99.90;;;;;;5015647;28;20022;-69
2021/09/26 07:15:59;;;;;;;14.20;11.55;;;18.30;99.90;;;;;;5025188;28;20025;-69
2021/09/26 07:18:25;;;;;;;14.35;12.13;;;18.40;99.90;;;;;;5021622;28;20129;-69
2021/09/26 07:20:53;;;;;;;15.52;12.25;;;18.50;99.90;;;;;;5024402;28;20031;-69
2021/09/26 07:23:18;;;;;;;16.67;12.85;;;18.50;99.90;;;;;;5022472;28;20033;-69
2021/09/26 07:25:44;;;;;;;20.25;12.00;;;18.50;99.90;;;;;;5024652;28;20025;-69
2021/09/26 07:28:09;;;;;;;16.88;13.23;;;18.50;99.90;;;;;;5014616;28;21744;-69
2021/09/26 07:30:35;;;;;;;17.02;12.10;;;18.60;99.90;;;;;;5019544;28;20075;-69
2021/09/26 07:33:00;;;;;;;13.45;11.57;;;18.60;99.90;;;;;;5021886;28;20025;-69
2021/09/26 07:35:26;;;;;;;13.00;11.18;;;18.60;99.90;;;;;;5023899;28;20048;-69
2021/09/26 07:37:51;;;;;;;14.00;11.63;;;18.70;99.90;;;;;;5022343;28;20069;-68
2021/09/26 07:40:17;;;;;;;15.25;11.23;;;18.70;99.90;;;;;;5021334;28;20087;-68
2021/09/26 07:42:43;;;;;;;14.38;10.77;;;18.70;99.90;;;;;;5018829;28;20529;-68
2021/09/26 07:45:11;;;;;;;14.32;10.73;;;18.80;99.90;;;;;;5027206;28;20528;-68
2021/09/26 07:47:37;;;;;;;15.02;10.38;;;18.90;99.90;;;;;;5030184;28;20409;-68
2021/09/26 07:50:04;;;;;;;12.80;10.45;;;18.90;99.90;;;;;;5016547;28;20026;-68
2021/09/26 07:52:29;;;;;;;12.50;9.32;;;19.00;99.90;;;;;;5015441;28;20030;-68
2021/09/26 07:54:58;;;;;;;10.15;8.82;;;19.00;99.90;;;;;;5018790;28;20199;-68
2021/09/26 07:57:25;;;;;;;14.02;9.88;;;19.10;99.90;;;;;;5027169;28;20409;-67
2021/09/26 07:59:52;;;;;;;12.40;7.95;;;19.20;99.90;;;;;;5019916;28;20026;-67
2021/09/26 08:02:18;;;;;;;9.63;7.75;;;19.30;99.90;;;;;;5027989;28;20034;-68
2021/09/26 08:04:43;;;;;;;10.35;8.70;;;19.40;99.90;;;;;;5027150;28;20171;-66
2021/09/26 08:07:09;;;;;;;11.77;7.95;;;19.50;99.90;;;;;;5019857;28;20033;-68
2021/09/26 08:09:35;;;;;;;10.15;8.27;;;19.60;99.90;;;;;;5022079;28;20032;-68
2021/09/26 08:12:02;;;;;;;9.65;7.43;;;19.70;99.70;;;;;;5024826;28;20433;-68
2021/09/26 08:14:27;;;;;;;9.35;7.95;;;19.70;99.40;;;;;;5022387;28;20029;-68
2021/09/26 08:16:52;;;;;;;11.48;8.40;;;19.80;99.20;;;;;;5015294;28;20034;-68
2021/09/26 08:19:21;;;;;;;8.75;7.50;;;19.90;99.10;;;;;;5016997;28;20025;-68
2021/09/26 08:21:47;;;;;;;8.45;7.07;;;19.90;98.90;;;;;;5015190;28;20057;-68
2021/09/26 08:24:12;;;;;;;8.88;6.18;;;20.00;98.80;;;;;;5029188;28;20499;-67
2021/09/26 08:26:38;;;;;;;8.05;6.40;;;20.10;98.40;;;;;;5015535;28;20028;-68
2021/09/26 08:29:04;;;;;;;8.30;6.60;;;20.20;98.40;;;;;;5016805;28;20099;-68
2021/09/26 08:31:30;;;;;;;8.18;5.93;;;20.20;98.10;;;;;;5016798;28;20030;-67
2021/09/26 08:33:56;;;;;;;7.95;6.57;;;20.30;97.90;;;;;;5030567;28;20033;-68
2021/09/26 08:36:21;;;;;;;8.77;6.82;;;20.40;97.90;;;;;;5016659;28;20062;-68
2021/09/26 08:38:47;;;;;;;6.72;6.03;;;20.40;97.80;;;;;;5020408;28;20042;-68
2021/09/26 08:41:15;;;;;;;8.45;6.55;;;20.40;97.60;;;;;;5018077;28;20084;-67
2021/09/26 08:43:41;;;;;;;8.65;7.22;;;20.40;97.50;;;;;;5028066;28;20033;-68
2021/09/26 08:46:07;;;;;;;8.20;7.13;;;20.50;97.70;;;;;;5027506;28;20029;-67
2021/09/26 08:48:33;;;;;;;7.63;6.47;;;20.50;97.50;;;;;;5022124;28;20026;-68
2021/09/26 08:50:59;;;;;;;9.00;6.40;;;20.40;97.30;;;;;;5023802;28;20088;-67
2021/09/26 08:53:25;;;;;;;8.15;6.90;;;20.50;97.20;;;;;;5022731;28;20128;-67
2021/09/26 08:55:52;;;;;;;9.70;6.32;;;20.50;97.10;;;;;;5024519;28;20037;-67
2021/09/26 08:58:19;;;;;;;10.00;6.13;;;20.60;97.10;;;;;;5021862;28;20383;-67
2021/09/26 09:00:45;;;;;;;6.80;6.10;;;20.60;97.10;;;;;;5025422;28;20113;-67
2021/09/26 09:03:12;;;;;;;8.65;6.80;;;20.70;97.10;;;;;;5025613;28;20461;-68
2021/09/26 09:05:41;;;;;;;6.10;5.50;;;20.70;97.00;;;;;;5026743;28;20026;-68
2021/09/26 09:08:18;;;;;;;10.57;6.55;;;20.70;96.80;;;;;;5022827;28;20462;-68
2021/09/26 09:10:47;;;;;;;7.90;6.10;;;20.80;96.90;;;;;;5014096;28;20063;-67
2021/09/26 09:13:17;;;;;;;8.82;6.45;;;20.80;96.70;;;;;;5016338;28;20485;-67
2021/09/26 09:15:55;;;;;;;7.60;5.88;;;20.80;96.60;;;;;;5012801;28;20458;-67
2021/09/26 09:18:21;;;;;;;7.85;5.80;;;20.80;96.50;;;;;;5029046;28;21827;-67
2021/09/26 09:20:47;;;;;;;6.60;5.80;;;20.90;96.40;;;;;;5012894;28;20053;-67
2021/09/26 09:23:17;;;;;;;7.07;5.95;;;20.90;96.20;;;;;;5020707;28;20096;-68
2021/09/26 09:25:49;;;;;;;7.13;5.30;;;20.90;96.20;;;;;;5024134;28;20036;-68
2021/09/26 09:28:19;;;;;;;7.70;5.50;;;21.00;96.10;;;;;;5016226;28;20026;-68
2021/09/26 09:31:02;;;;;;;7.60;5.40;;;21.10;96.30;;;;;;5019914;28;20642;-68
2021/09/26 09:33:45;;;;;;;6.63;5.05;;;21.10;96.10;;;;;;5017955;28;20025;-67
2021/09/26 09:36:21;;;;;;;8.45;5.82;;;21.20;95.90;;;;;;5019323;28;20746;-67
2021/09/26 09:38:50;;;;;;;5.85;5.07;;;21.30;95.60;;;;;;5024097;28;20431;-67
2021/09/26 09:41:42;;;;;;;6.80;5.20;;;21.30;95.30;;;;;;5011226;28;20505;-67
2021/09/26 09:44:11;;;;;;;6.55;5.32;;;21.40;95.40;;;;;;5022616;28;20030;-67
2021/09/26 09:46:42;;;;;;;6.03;4.90;;;21.50;95.20;;;;;;5026282;28;20976;-68
2021/09/26 09:49:08;;;;;;;6.35;4.53;;;21.50;95.10;;;;;;5026496;28;20445;-66
2021/09/26 09:51:33;;;;;;;6.70;4.95;;;21.60;95.10;;;;;;5023217;28;20056;-67
2021/09/26 09:54:03;;;;;;;8.30;5.00;;;21.70;95.00;;;;;;5023851;28;20417;-68
2021/09/26 09:56:40;;;;;;;6.65;5.13;;;21.70;94.70;;;;;;5017422;28;20132;-68
2021/09/26 09:59:05;;;;;;;6.50;4.90;;;21.70;94.70;;;;;;5025321;28;20034;-68
2021/09/26 10:01:33;;;;;;;5.80;4.60;;;21.80;94.50;;;;;;5020125;28;20766;-68
2021/09/26 10:04:04;;;;;;;6.38;4.97;;;21.90;94.40;;;;;;5023400;28;20029;-68
2021/09/26 10:06:40;;;;;;;5.75;4.93;;;22.00;94.40;;;;;;5018818;28;20029;-68
2021/09/26 10:09:14;;;;;;;4.82;4.15;;;22.10;94.30;;;;;;5017292;28;20100;-68
2021/09/26 10:11:46;;;;;;;7.28;4.38;;;22.10;94.00;;;;;;5028969;28;20529;-68
2021/09/26 10:14:12;;;;;;;6.35;4.63;;;22.20;93.90;;;;;;5031147;28;20054;-68
2021/09/26 10:16:38;;;;;;;7.10;4.50;;;22.30;93.50;;;;;;5031590;28;20026;-68
2021/09/26 10:19:04;;;;;;;6.30;4.63;;;22.30;93.40;;;;;;5031602;28;20461;-68
2021/09/26 10:21:30;;;;;;;4.97;4.03;;;22.40;93.30;;;;;;5029991;28;20025;-68
2021/09/26 10:23:56;;;;;;;5.60;3.97;;;22.40;93.30;;;;;;5030919;28;20520;-68
2021/09/26 10:26:24;;;;;;;8.13;4.72;;;22.60;93.10;;;;;;5029023;28;20489;-68
2021/09/26 10:28:56;;;;;;;4.75;3.95;;;22.70;93.00;;;;;;5029228;28;20037;-68
2021/09/26 10:31:25;;;;;;;5.07;3.97;;;22.90;92.90;;;;;;5031443;28;20061;-68
2021/09/26 10:33:51;;;;;;;5.07;3.90;;;23.00;92.80;;;;;;5031238;28;20033;-68
2021/09/26 10:36:22;;;;;;;5.40;4.47;;;23.20;92.50;;;;;;5031048;28;20033;-68
2021/09/26 10:38:50;;;;;;;6.10;4.32;;;23.30;92.30;;;;;;5027031;28;20044;-68
2021/09/26 10:41:16;;;;;;;6.10;3.58;;;23.40;92.10;;;;;;5025630;28;20120;-68
2021/09/26 10:43:43;;;;;;;5.97;3.85;;;23.50;91.60;;;;;;5030178;28;20037;-68
2021/09/26 10:46:12;;;;;;;4.55;3.45;;;23.60;91.40;;;;;;5029471;28;20025;-68
2021/09/26 10:48:56;;;;;;;4.88;3.80;;;23.70;91.20;;;;;;5029257;28;20100;-68
2021/09/26 10:51:40;;;;;;;4.80;3.60;;;23.70;91.20;;;;;;5030699;28;20045;-68
2021/09/26 10:54:26;;;;;;;5.20;3.95;;;23.80;91.30;;;;;;5024850;28;20052;-68
2021/09/26 10:57:13;;;;;;;4.88;3.72;;;23.80;91.10;;;;;;5023534;28;20045;-68
2021/09/26 11:00:05;;;;;;;5.90;3.90;;;23.80;90.40;;;;;;5029507;28;20112;-68
2021/09/26 11:02:30;;;;;;;4.75;3.75;;;23.80;90.30;;;;;;5010975;28;20038;-68
2021/09/26 11:04:58;;;;;;;4.65;3.60;;;23.80;90.20;;;;;;5020096;28;20029;-68
2021/09/26 11:07:29;;;;;;;6.88;3.97;;;23.80;90.00;;;;;;5031122;28;20030;-68
2021/09/26 11:09:56;;;;;;;5.00;3.85;;;23.80;89.70;;;;;;5029619;28;20029;-68
2021/09/26 11:12:46;;;;;;;6.88;4.15;;;23.80;88.70;;;;;;5027646;28;20477;-68
2021/09/26 11:15:21;;;;;;;5.93;3.53;;;23.80;89.70;;;;;;5022645;28;20030;-68
2021/09/26 11:17:52;;;;;;;5.30;3.60;;;23.80;89.60;;;;;;5014771;28;20034;-68
2021/09/26 11:20:29;;;;;;;3.83;3.42;;;23.80;88.80;;;;;;5019702;28;20026;-68
2021/09/26 11:23:04;;;;;;;4.60;3.67;;;23.80;88.40;;;;;;5032369;28;20524;-68
2021/09/26 11:26:03;;;;;;;6.50;4.40;;;23.80;88.50;;;;;;5031756;28;20061;-68
2021/09/26 11:28:37;;;;;;;4.18;3.72;;;23.80;88.60;;;;;;5032914;28;20036;-68
2021/09/26 11:31:11;;;;;;;4.82;3.58;;;23.80;88.30;;;;;;5034323;28;20401;-68
2021/09/26 11:33:59;;;;;;;4.80;3.65;;;23.80;88.40;;;;;;5037563;28;20025;-68
2021/09/26 11:36:27;;;;;;;5.40;3.92;;;23.80;88.60;;;;;;5031160;28;20037;-68
2021/09/26 11:38:54;;;;;;;6.35;3.78;;;23.90;88.30;;;;;;5033010;28;20044;-68
2021/09/26 11:41:34;;;;;;;6.38;3.85;;;23.90;88.60;;;;;;5032770;28;20036;-68
2021/09/26 11:44:07;;;;;;;6.15;3.90;;;24.00;88.30;;;;;;5030771;28;20030;-69
2021/09/26 11:46:34;;;;;;;5.50;4.05;;;24.00;88.10;;;;;;5033332;28;20027;-69
2021/09/26 11:49:05;;;;;;;4.97;3.60;;;24.00;88.30;;;;;;5033884;28;20116;-70
2021/09/26 11:51:33;;;;;;;6.05;4.05;;;24.10;88.30;;;;;;5029920;28;20061;-71
2021/09/26 11:54:00;;;;;;;4.45;4.00;;;24.10;88.20;;;;;;5013748;28;20045;-70
2021/09/26 11:56:31;;;;;;;5.07;4.00;;;24.10;87.40;;;;;;5014330;28;20471;-77
2021/09/26 11:58:59;;;;;;;5.53;3.50;;;24.10;87.30;;;;;;5024977;28;20505;-72
2021/09/26 12:01:33;;;;;;;4.60;3.63;;;24.10;87.20;;;;;;5031016;28;20115;-72
2021/09/26 12:04:26;;;;;;;5.90;4.40;;;24.20;86.70;;;;;;5031007;28;20029;-72
2021/09/26 12:07:01;;;;;;;14.77;4.95;;;24.10;87.10;;;;;;5043884;28;20381;-71
2021/09/26 12:09:41;;;;;;;12.23;4.82;;;24.20;87.20;;;;;;5030117;28;20021;-73
2021/09/26 12:12:12;;;;;;;8.18;4.65;;;24.20;87.40;;;;;;5031849;28;20053;-74
2021/09/26 12:14:41;;;;;;;6.72;4.20;;;24.20;87.60;;;;;;5030627;28;20026;-74
2021/09/26 12:17:10;;;;;;;4.32;3.67;;;24.20;87.00;;;;;;5032084;28;20049;-73
2021/09/26 12:19:36;;;;;;;8.77;4.18;;;24.20;86.40;;;;;;5032155;28;20082;-74
2021/09/26 12:22:17;;;;;;;5.78;3.75;;;24.30;86.00;;;;;;5021565;28;20034;-73
2021/09/26 12:24:53;;;;;;;6.82;4.38;;;24.30;86.20;;;;;;5027781;28;20029;-73
2021/09/26 12:27:21;;;;;;;4.68;3.88;;;24.30;85.90;;;;;;5021487;28;20355;-73
2021/09/26 12:30:08;;;;;;;6.15;3.88;;;24.30;85.60;;;;;;5030571;28;20029;-73
2021/09/26 12:32:40;;;;;;;8.93;4.30;;;24.40;85.70;;;;;;5027057;28;20030;-74
2021/09/26 12:35:13;;;;;;;5.88;4.30;;;24.40;84.80;;;;;;5018252;28;20025;-74
2021/09/26 12:37:52;;;;;;;12.27;5.38;;;24.50;85.00;;;;;;5021184;28;20041;-73
2021/09/26 12:40:24;;;;;;;5.75;4.18;;;24.60;88.60;;;;;;5021972;28;20028;-74
2021/09/26 12:42:52;;;;;;;6.72;4.40;;;24.60;87.00;;;;;;5027534;28;20037;-73